createdAt,value
2024-01-22T00:01:14.584Z,5.07
2024-01-22T00:03:43.147Z,4.13
2024-01-22T00:06:11.826Z,1.88
2024-01-22T00:08:40.431Z,2.13
2024-01-22T00:11:09.369Z,4.82
2024-01-22T00:13:38.030Z,3.15
2024-01-22T00:16:08.688Z,3.58
2024-01-22T00:18:37.348Z,7.78
2024-01-22T00:21:06.790Z,4.85
2024-01-22T00:23:35.395Z,3.85
2024-01-22T00:26:04.244Z,3.90
2024-01-22T00:28:33.270Z,2.50
2024-01-22T00:31:01.841Z,3.13
2024-01-22T00:33:32.414Z,5.38
2024-01-22T00:36:01.058Z,5.53
2024-01-22T00:38:29.605Z,2.03
2024-01-22T00:40:58.484Z,1.67
2024-01-22T00:43:27.414Z,8.05
2024-01-22T00:45:55.946Z,5.70
2024-01-22T00:48:25.110Z,3.30
2024-01-22T00:50:55.206Z,2.85
2024-01-22T00:53:23.739Z,4.50
2024-01-22T00:55:52.656Z,6.35
2024-01-22T00:58:21.533Z,2.72
2024-01-22T01:00:50.673Z,3.45
2024-01-22T01:03:19.359Z,4.20
2024-01-22T01:05:48.079Z,1.83
2024-01-22T01:08:18.469Z,3.50
2024-01-22T01:10:46.994Z,1.60
2024-01-22T01:13:15.652Z,2.58
2024-01-22T01:15:44.726Z,4.07
2024-01-22T01:18:14.468Z,2.70
2024-01-22T01:20:43.682Z,2.90
2024-01-22T01:23:12.732Z,3.45
2024-01-22T01:25:43.009Z,6.88
2024-01-22T01:28:11.798Z,2.42
2024-01-22T01:30:40.862Z,3.13
2024-01-22T01:33:09.636Z,2.85
2024-01-22T01:35:38.317Z,2.63
2024-01-22T01:38:07.372Z,0.93
2024-01-22T01:40:35.905Z,1.65
2024-01-22T01:43:06.385Z,4.10
2024-01-22T01:45:34.901Z,3.08
2024-01-22T01:48:04.519Z,1.73
2024-01-22T01:50:33.535Z,2.45
2024-01-22T01:53:02.827Z,2.20
2024-01-22T01:55:31.752Z,5.97
2024-01-22T01:58:05.646Z,2.97
2024-01-22T02:00:36.794Z,2.45
2024-01-22T02:03:05.632Z,2.97
2024-01-22T02:05:33.586Z,2.35
2024-01-22T02:08:02.464Z,6.25
2024-01-22T02:10:31.325Z,3.72
2024-01-22T02:12:59.773Z,3.30
2024-01-22T02:15:28.595Z,1.55
2024-01-22T02:18:02.124Z,3.67
2024-01-22T02:20:30.796Z,4.70
2024-01-22T02:23:03.940Z,5.35
2024-01-22T02:25:32.384Z,4.45
2024-01-22T02:28:01.261Z,2.38
2024-01-22T02:30:29.717Z,4.45
2024-01-22T02:32:58.540Z,1.85
2024-01-22T02:35:27.072Z,2.70
2024-01-22T02:37:55.967Z,3.90
2024-01-22T02:40:25.790Z,0.65
2024-01-22T02:42:54.560Z,6.03
2024-01-22T02:45:23.137Z,1.02
2024-01-22T02:47:51.789Z,3.97
2024-01-22T02:50:20.347Z,1.67
2024-01-22T02:52:49.187Z,1.80
2024-01-22T02:55:21.020Z,2.10
2024-01-22T02:57:51.722Z,3.28
2024-01-22T03:00:20.453Z,5.13
2024-01-22T03:02:49.389Z,2.13
2024-01-22T03:05:18.740Z,1.83
2024-01-22T03:07:47.541Z,3.30
2024-01-22T03:10:17.767Z,2.53
2024-01-22T03:12:47.217Z,2.30
2024-01-22T03:15:17.563Z,2.97
2024-01-22T03:17:46.474Z,0.65
2024-01-22T03:20:15.248Z,5.35
2024-01-22T03:22:43.705Z,2.28
2024-01-22T03:25:15.778Z,2.05
2024-01-22T03:27:44.256Z,1.73
2024-01-22T03:30:13.572Z,1.40
2024-01-22T03:32:44.028Z,4.93
2024-01-22T03:35:12.518Z,3.25
2024-01-22T03:37:41.044Z,3.17
2024-01-22T03:40:11.363Z,5.05
2024-01-22T03:42:39.895Z,2.50
2024-01-22T03:45:08.934Z,2.45
2024-01-22T03:47:38.075Z,2.40
2024-01-22T03:50:08.833Z,4.35
2024-01-22T03:52:37.366Z,3.85
2024-01-22T03:55:06.539Z,4.60
2024-01-22T03:57:34.980Z,2.80
2024-01-22T04:00:03.601Z,0.93
2024-01-22T04:02:35.463Z,2.20
2024-01-22T04:05:04.024Z,2.75
2024-01-22T04:07:34.347Z,3.30
2024-01-22T04:10:02.790Z,1.70
2024-01-22T04:12:31.845Z,2.55
2024-01-22T04:15:00.739Z,3.40
2024-01-22T04:17:29.222Z,1.75
2024-01-22T04:19:57.678Z,1.50
2024-01-22T04:22:26.362Z,3.80
2024-01-22T04:24:56.161Z,4.25
2024-01-22T04:27:25.020Z,3.00
2024-01-22T04:29:53.582Z,2.92
2024-01-22T04:32:22.464Z,3.03
2024-01-22T04:34:51.636Z,3.70
2024-01-22T04:37:22.508Z,1.35
2024-01-22T04:39:50.971Z,2.33
2024-01-22T04:42:21.971Z,2.78
2024-01-22T04:44:50.994Z,4.88
2024-01-22T04:47:19.987Z,1.98
2024-01-22T04:49:48.616Z,3.10
2024-01-22T04:52:17.135Z,1.67
2024-01-22T04:54:45.564Z,1.77
2024-01-22T04:57:14.586Z,1.52
2024-01-22T04:59:44.543Z,1.20
2024-01-22T05:02:13.004Z,3.28
2024-01-22T05:04:41.984Z,1.40
2024-01-22T05:07:10.445Z,3.47
2024-01-22T05:09:39.334Z,2.95
2024-01-22T05:12:08.651Z,2.00
2024-01-22T05:14:41.921Z,1.85
2024-01-22T05:17:12.248Z,3.03
2024-01-22T05:19:40.735Z,1.38
2024-01-22T05:22:09.243Z,4.50
2024-01-22T05:24:38.038Z,1.83
2024-01-22T05:27:06.754Z,0.80
2024-01-22T05:29:35.330Z,1.13
2024-01-22T05:32:04.245Z,2.17
2024-01-22T05:34:34.237Z,1.90
2024-01-22T05:37:03.006Z,2.20
2024-01-22T05:39:31.434Z,1.52
2024-01-22T05:41:59.960Z,2.03
2024-01-22T05:44:28.455Z,1.73
2024-01-22T05:46:56.880Z,1.80
2024-01-22T05:49:29.748Z,2.47
2024-01-22T05:52:00.508Z,1.48
2024-01-22T05:54:29.321Z,2.40
2024-01-22T05:56:58.440Z,1.15
2024-01-22T05:59:27.279Z,1.38
2024-01-22T06:01:57.984Z,1.65
2024-01-22T06:04:27.415Z,1.40
2024-01-22T06:06:55.994Z,0.93
2024-01-22T06:09:26.418Z,1.20
2024-01-22T06:11:54.910Z,4.45
2024-01-22T06:14:23.347Z,1.60
2024-01-22T06:16:53.762Z,1.17
2024-01-22T06:19:22.236Z,1.05
2024-01-22T06:21:51.066Z,2.25
2024-01-22T06:24:19.572Z,2.97
2024-01-22T06:26:49.479Z,1.52
2024-01-22T06:29:17.935Z,0.77
2024-01-22T06:31:46.743Z,1.63
2024-01-22T06:34:15.297Z,1.85
2024-01-22T06:36:44.313Z,2.35
2024-01-22T06:39:12.817Z,2.97
2024-01-22T06:41:41.342Z,4.32
2024-01-22T06:44:11.544Z,4.32
2024-01-22T06:46:39.979Z,1.77
2024-01-22T06:49:11.268Z,3.80
2024-01-22T06:51:46.033Z,2.72
2024-01-22T06:54:17.484Z,2.67
2024-01-22T06:56:46.468Z,0.82
2024-01-22T06:59:17.142Z,2.10
2024-01-22T07:01:45.573Z,4.57
2024-01-22T07:04:14.496Z,1.90
2024-01-22T07:06:43.079Z,2.00
2024-01-22T07:09:13.116Z,2.25
2024-01-22T07:11:43.557Z,0.65
2024-01-22T07:14:12.229Z,1.25
2024-01-22T07:16:42.066Z,1.35
2024-01-22T07:19:10.571Z,1.10
2024-01-22T07:21:39.078Z,2.10
2024-01-22T07:24:08.291Z,3.53
2024-01-22T07:26:36.752Z,1.85
2024-01-22T07:29:05.528Z,2.05
2024-01-22T07:31:34.333Z,1.00
2024-01-22T07:34:04.950Z,1.38
2024-01-22T07:36:34.213Z,1.38
2024-01-22T07:39:03.071Z,3.47
2024-01-22T07:41:31.560Z,5.10
2024-01-22T07:44:00.370Z,2.88
2024-01-22T07:46:30.003Z,1.75
2024-01-22T07:48:58.592Z,0.82
2024-01-22T07:51:30.737Z,2.42
2024-01-22T07:53:59.633Z,2.35
2024-01-22T07:56:29.855Z,1.60
2024-01-22T07:58:58.772Z,1.20
2024-01-22T08:01:27.233Z,2.00
2024-01-22T08:03:56.460Z,1.08
2024-01-22T08:06:25.010Z,3.47
2024-01-22T08:08:54.961Z,0.80
2024-01-22T08:11:23.940Z,1.17
2024-01-22T08:13:52.412Z,1.75
2024-01-22T08:16:20.899Z,1.88
2024-01-22T08:18:49.600Z,1.15
2024-01-22T08:21:18.708Z,1.55
2024-01-22T08:23:47.775Z,1.23
2024-01-22T08:26:18.173Z,1.55
2024-01-22T08:28:46.609Z,0.95
2024-01-22T08:31:15.582Z,0.90
2024-01-22T08:33:44.382Z,0.88
2024-01-22T08:36:13.536Z,2.90
2024-01-22T08:38:42.021Z,2.50
2024-01-22T08:41:10.582Z,1.70
2024-01-22T08:43:40.383Z,1.17
2024-01-22T08:46:09.457Z,1.73
2024-01-22T08:48:38.058Z,0.90
2024-01-22T08:51:06.713Z,0.63
2024-01-22T08:53:35.257Z,1.63
2024-01-22T08:56:03.732Z,1.95
2024-01-22T08:58:32.468Z,2.03
2024-01-22T09:01:09.636Z,1.02
2024-01-22T09:03:38.453Z,1.40
2024-01-22T09:06:07.897Z,0.93
2024-01-22T09:08:37.325Z,1.30
2024-01-22T09:11:06.362Z,2.15
2024-01-22T09:13:34.961Z,0.82
2024-01-22T09:16:05.174Z,0.82
2024-01-22T09:18:33.972Z,2.42
2024-01-22T09:21:04.422Z,3.10
2024-01-22T09:23:32.964Z,1.92
2024-01-22T09:26:02.678Z,1.00
2024-01-22T09:28:32.031Z,0.43
2024-01-22T09:31:01.293Z,2.88
2024-01-22T09:33:31.867Z,1.52
2024-01-22T09:36:03.299Z,1.17
2024-01-22T09:38:31.824Z,0.80
2024-01-22T09:41:00.380Z,0.82
2024-01-22T09:43:29.047Z,2.05
2024-01-22T09:45:58.442Z,0.70
2024-01-22T09:48:27.289Z,0.50
2024-01-22T09:50:57.495Z,1.05
2024-01-22T09:53:27.025Z,0.50
2024-01-22T09:55:56.076Z,0.45
2024-01-22T09:58:29.756Z,0.85
2024-01-22T10:00:58.425Z,1.50
2024-01-22T10:03:32.512Z,1.48
2024-01-22T10:06:03.100Z,1.67
2024-01-22T10:08:32.011Z,0.73
2024-01-22T10:11:01.039Z,0.60
2024-01-22T10:13:29.843Z,1.65
2024-01-22T10:16:00.922Z,0.70
2024-01-22T10:18:29.662Z,0.35
2024-01-22T10:21:00.271Z,1.17
2024-01-22T10:23:30.307Z,0.77
2024-01-22T10:26:07.953Z,3.10
2024-01-22T10:28:37.230Z,1.63
2024-01-22T10:31:06.999Z,1.25
2024-01-22T10:33:35.866Z,0.80
2024-01-22T10:36:17.424Z,1.70
2024-01-22T10:38:48.137Z,0.98
2024-01-22T10:41:20.534Z,1.77
2024-01-22T10:43:50.726Z,1.40
2024-01-22T10:46:20.558Z,2.70
2024-01-22T10:48:50.150Z,0.60
2024-01-22T10:51:19.572Z,0.85
2024-01-22T10:53:52.178Z,0.93
2024-01-22T10:56:25.570Z,0.98
2024-01-22T10:59:01.705Z,0.80
2024-01-22T11:01:32.232Z,1.50
2024-01-22T11:04:01.498Z,0.70
2024-01-22T11:06:30.684Z,0.40
2024-01-22T11:09:02.988Z,1.05
2024-01-22T11:11:31.845Z,0.82
2024-01-22T11:14:01.585Z,1.85
2024-01-22T11:16:31.302Z,0.63
2024-01-22T11:19:01.496Z,1.45
2024-01-22T11:21:40.629Z,1.40
2024-01-22T11:24:16.097Z,1.63
2024-01-22T11:26:47.250Z,1.23
2024-01-22T11:29:18.576Z,1.40
2024-01-22T11:31:49.873Z,3.22
2024-01-22T11:34:48.058Z,3.33
2024-01-22T11:37:34.844Z,2.05
2024-01-22T11:40:05.607Z,3.42
2024-01-22T11:42:34.311Z,0.60
2024-01-22T11:45:13.292Z,1.27
2024-01-22T11:47:43.480Z,1.25
2024-01-22T11:50:12.736Z,1.63
2024-01-22T11:52:41.559Z,2.47
2024-01-22T11:55:12.116Z,1.45
2024-01-22T11:57:43.022Z,0.95
2024-01-22T12:00:16.080Z,1.17
2024-01-22T12:02:47.604Z,0.35
2024-01-22T12:05:19.197Z,1.75
2024-01-22T12:07:50.241Z,2.00
2024-01-22T12:10:24.000Z,2.45
2024-01-22T12:12:53.880Z,0.60
2024-01-22T12:15:23.670Z,2.67
2024-01-22T12:17:52.658Z,1.35
2024-01-22T12:20:22.276Z,1.60
2024-01-22T12:22:58.852Z,2.40
2024-01-22T12:25:37.019Z,0.80
2024-01-22T12:28:06.296Z,1.75
2024-01-22T12:30:35.296Z,1.13
2024-01-22T12:33:05.258Z,3.45
2024-01-22T12:35:34.112Z,1.52
2024-01-22T12:38:12.339Z,4.20
2024-01-22T12:40:43.796Z,1.55
2024-01-22T12:43:12.859Z,1.58
2024-01-22T12:45:41.764Z,1.00
2024-01-22T12:48:10.583Z,2.67
2024-01-22T12:53:29.508Z,1.45
2024-01-22T12:56:02.374Z,2.22
2024-01-22T12:58:31.430Z,3.67
2024-01-22T13:01:00.444Z,3.17
2024-01-22T13:03:29.288Z,1.60
2024-01-22T13:05:58.367Z,1.75
2024-01-22T13:08:27.010Z,4.28
2024-01-22T13:10:57.124Z,2.78
2024-01-22T13:13:27.703Z,0.90
2024-01-22T13:16:11.440Z,1.15
2024-01-22T13:18:45.271Z,1.15
2024-01-22T13:21:16.728Z,2.08
2024-01-22T13:23:46.662Z,2.63
2024-01-22T13:26:16.545Z,1.88
2024-01-22T13:28:47.954Z,1.27
2024-01-22T13:31:17.273Z,2.45
2024-01-22T13:33:50.687Z,1.23
2024-01-22T13:36:22.170Z,3.10
2024-01-22T13:38:51.220Z,2.42
2024-01-22T13:41:20.249Z,3.42
2024-01-22T13:43:51.997Z,1.38
2024-01-22T13:46:21.258Z,2.33
2024-01-22T13:48:51.278Z,3.65
2024-01-22T13:51:20.407Z,2.30
2024-01-22T13:53:50.127Z,1.08
2024-01-22T13:56:20.302Z,0.80
2024-01-22T13:58:51.349Z,0.68
2024-01-22T14:01:21.259Z,2.85
2024-01-22T14:03:49.906Z,3.40
2024-01-22T14:06:19.377Z,3.05
2024-01-22T14:08:48.441Z,4.38
2024-01-22T14:11:17.939Z,3.15
2024-01-22T14:13:50.644Z,3.05
2024-01-22T14:16:22.060Z,3.92
2024-01-22T14:18:51.439Z,0.70
2024-01-22T14:21:20.828Z,4.35
2024-01-22T14:23:50.500Z,2.33
2024-01-22T14:26:19.428Z,4.95
2024-01-22T14:28:50.132Z,1.33
2024-01-22T14:31:18.877Z,3.15
2024-01-22T14:33:49.608Z,3.88
2024-01-22T14:36:18.476Z,1.52
2024-01-22T14:38:48.296Z,1.30
2024-01-22T14:41:18.335Z,1.42
2024-01-22T14:43:49.131Z,1.92
2024-01-22T14:46:21.774Z,0.50
2024-01-22T14:48:59.427Z,1.10
2024-01-22T14:51:36.367Z,1.58
2024-01-22T14:54:05.052Z,2.30
2024-01-22T14:56:33.657Z,0.65
2024-01-22T14:59:02.281Z,1.23
2024-01-22T15:01:33.306Z,4.75
2024-01-22T15:04:02.518Z,1.98
2024-01-22T15:06:31.717Z,1.67
2024-01-22T15:09:00.385Z,2.40
2024-01-22T15:11:29.005Z,2.75
2024-01-22T15:13:58.122Z,6.18
2024-01-22T15:16:28.587Z,6.28
2024-01-22T15:18:59.426Z,2.20
2024-01-22T15:21:30.757Z,4.85
2024-01-22T15:23:59.939Z,4.40
2024-01-22T15:26:28.719Z,1.13
2024-01-22T15:28:57.356Z,3.00
2024-01-22T15:31:26.447Z,3.10
2024-01-22T15:33:59.230Z,2.88
2024-01-22T15:36:29.670Z,2.85
2024-01-22T15:38:58.539Z,4.53
2024-01-22T15:41:27.817Z,4.97
2024-01-22T15:43:57.164Z,6.30
2024-01-22T15:46:26.135Z,6.18
2024-01-22T15:48:55.083Z,8.18
2024-01-22T15:51:24.461Z,4.63
2024-01-22T15:53:55.329Z,4.75
2024-01-22T15:56:24.231Z,5.95
2024-01-22T15:58:52.874Z,3.58
2024-01-22T16:01:24.362Z,3.28
2024-01-22T16:03:55.942Z,3.00
2024-01-22T16:06:25.198Z,4.85
2024-01-22T16:08:55.487Z,6.25
2024-01-22T16:11:26.404Z,5.75
2024-01-22T16:13:55.413Z,3.38
2024-01-22T16:16:24.850Z,3.17
2024-01-22T16:18:53.993Z,2.25
2024-01-22T16:21:22.947Z,5.88
2024-01-22T16:23:52.227Z,5.03
2024-01-22T16:26:22.405Z,5.38
2024-01-22T16:28:51.357Z,9.85
2024-01-22T16:31:20.152Z,5.72
2024-01-22T16:33:48.845Z,3.67
2024-01-22T16:36:23.608Z,6.25
2024-01-22T16:38:52.379Z,3.05
2024-01-22T16:41:22.439Z,7.40
2024-01-22T16:43:51.435Z,6.85
2024-01-22T16:46:20.020Z,7.53
2024-01-22T16:48:48.730Z,9.20
2024-01-22T16:51:17.890Z,13.25
2024-01-22T16:53:46.583Z,9.13
2024-01-22T16:56:15.758Z,9.57
2024-01-22T16:58:45.869Z,7.53
2024-01-22T17:01:16.386Z,11.02
2024-01-22T17:03:46.369Z,4.95
2024-01-22T17:06:15.078Z,13.93
2024-01-22T17:08:43.724Z,7.53
2024-01-22T17:11:13.362Z,10.60
2024-01-22T17:13:42.018Z,7.78
2024-01-22T17:16:12.193Z,4.38
2024-01-22T17:18:41.049Z,7.60
2024-01-22T17:21:09.891Z,13.35
2024-01-22T17:23:39.382Z,8.20
2024-01-22T17:26:11.160Z,12.75
2024-01-22T17:28:40.069Z,4.78
2024-01-22T17:31:10.293Z,10.85
2024-01-22T17:33:41.585Z,8.60
2024-01-22T17:36:10.696Z,9.07
2024-01-22T17:38:40.457Z,8.45
2024-01-22T17:41:09.821Z,4.95
2024-01-22T17:43:38.493Z,4.28
2024-01-22T17:46:07.291Z,3.13
2024-01-22T17:48:36.326Z,8.55
2024-01-22T17:51:08.024Z,9.32
2024-01-22T17:53:36.755Z,5.80
2024-01-22T17:56:05.467Z,7.88
2024-01-22T17:58:34.085Z,5.43
2024-01-22T18:01:02.770Z,9.45
2024-01-22T18:03:31.440Z,7.88
2024-01-22T18:06:00.118Z,5.95
2024-01-22T18:08:30.449Z,3.10
2024-01-22T18:10:59.046Z,5.13
2024-01-22T18:13:28.191Z,5.85
2024-01-22T18:15:57.993Z,4.60
2024-01-22T18:18:26.800Z,3.08
2024-01-22T18:20:55.528Z,3.13
2024-01-22T18:23:25.591Z,5.57
2024-01-22T18:25:55.840Z,3.75
2024-01-22T18:28:24.487Z,10.40
2024-01-22T18:30:53.219Z,8.00
2024-01-22T18:33:21.968Z,7.47
2024-01-22T18:35:50.670Z,8.05
2024-01-22T18:38:19.266Z,8.57
2024-01-22T18:40:47.917Z,4.63
2024-01-22T18:43:20.115Z,4.80
2024-01-22T18:45:48.789Z,9.13
2024-01-22T18:48:17.726Z,5.30
2024-01-22T18:50:46.759Z,9.73
2024-01-22T18:53:17.697Z,3.90
2024-01-22T18:55:46.344Z,11.90
2024-01-22T18:58:14.921Z,12.40
2024-01-22T19:00:45.088Z,13.82
2024-01-22T19:03:14.470Z,5.70
2024-01-22T19:05:43.129Z,17.55
2024-01-22T19:08:11.746Z,17.00
2024-01-22T19:10:40.604Z,9.63
2024-01-22T19:13:12.734Z,17.08
2024-01-22T19:15:41.597Z,6.30
2024-01-22T19:18:12.083Z,15.63
2024-01-22T19:20:41.126Z,9.85
2024-01-22T19:23:10.580Z,4.82
2024-01-22T19:25:39.853Z,17.90
2024-01-22T19:28:08.627Z,12.60
2024-01-22T19:30:37.352Z,13.43
2024-01-22T19:33:07.341Z,10.32
2024-01-22T19:35:37.829Z,10.82
2024-01-22T19:38:06.407Z,12.45
2024-01-22T19:40:35.660Z,16.45
2024-01-22T19:43:04.388Z,17.13
2024-01-22T19:45:33.102Z,8.57
2024-01-22T19:48:02.002Z,11.02
2024-01-22T19:50:31.129Z,13.05
2024-01-22T19:53:01.163Z,5.15
2024-01-22T19:55:30.115Z,11.00
2024-01-22T19:57:58.770Z,8.38
2024-01-22T20:00:27.787Z,7.18
2024-01-22T20:02:56.452Z,7.30
2024-01-22T20:05:25.579Z,9.65
2024-01-22T20:07:56.596Z,3.10
2024-01-22T20:10:26.862Z,8.95
2024-01-22T20:12:55.509Z,9.13
2024-01-22T20:15:24.886Z,6.20
2024-01-22T20:17:53.642Z,12.70
2024-01-22T20:20:22.320Z,13.27
2024-01-22T20:22:51.368Z,17.40
2024-01-22T20:25:20.046Z,10.77
2024-01-22T20:27:51.315Z,11.85
2024-01-22T20:30:20.097Z,5.57
2024-01-22T20:32:48.854Z,14.13
2024-01-22T20:35:17.746Z,9.40
2024-01-22T20:37:46.522Z,11.65
2024-01-22T20:40:15.255Z,8.32
2024-01-22T20:42:43.962Z,9.32
2024-01-22T20:45:14.021Z,12.82
2024-01-22T20:47:42.904Z,14.90
2024-01-22T20:50:11.997Z,8.25
2024-01-22T20:52:40.684Z,5.80
2024-01-22T20:55:10.713Z,15.90
2024-01-22T20:57:41.509Z,16.02
2024-01-22T21:00:11.406Z,9.43
2024-01-22T21:02:41.891Z,9.73
2024-01-22T21:05:10.867Z,8.23
2024-01-22T21:07:40.872Z,3.47
2024-01-22T21:10:10.771Z,17.08
2024-01-22T21:12:39.949Z,11.52
2024-01-22T21:15:09.493Z,11.35
2024-01-22T21:17:38.468Z,12.18
2024-01-22T21:20:09.597Z,11.20
2024-01-22T21:22:39.306Z,14.30
2024-01-22T21:25:08.520Z,10.13
2024-01-22T21:27:37.346Z,13.90
2024-01-22T21:30:06.434Z,7.30
2024-01-22T21:32:35.133Z,15.77
2024-01-22T21:35:04.189Z,10.32
2024-01-22T21:37:34.265Z,8.20
2024-01-22T21:40:02.863Z,9.68
2024-01-22T21:42:31.868Z,11.48
2024-01-22T21:45:00.645Z,10.93
2024-01-22T21:47:30.206Z,6.20
2024-01-22T21:49:59.064Z,8.20
2024-01-22T21:52:27.704Z,5.00
2024-01-22T21:54:57.734Z,8.90
2024-01-22T21:57:26.819Z,3.95
2024-01-22T21:59:55.675Z,9.18
2024-01-22T22:02:24.687Z,14.45
2024-01-22T22:04:55.502Z,6.30
2024-01-22T22:07:24.612Z,10.02
2024-01-22T22:09:54.797Z,5.72
2024-01-22T22:12:25.783Z,12.70
2024-01-22T22:14:55.295Z,10.77
2024-01-22T22:17:24.599Z,13.10
2024-01-22T22:19:53.368Z,5.47
2024-01-22T22:22:22.331Z,7.82
2024-01-22T22:24:51.032Z,8.93
2024-01-22T22:27:20.037Z,10.65
2024-01-22T22:29:50.446Z,7.45
2024-01-22T22:32:19.113Z,8.70
2024-01-22T22:34:48.175Z,9.07
2024-01-22T22:37:17.328Z,8.20
2024-01-22T22:39:46.199Z,5.43
2024-01-22T22:42:14.868Z,5.15
2024-01-22T22:44:43.817Z,3.42
2024-01-22T22:47:14.848Z,3.47
2024-01-22T22:49:43.663Z,4.00
2024-01-22T22:52:13.050Z,4.30
2024-01-22T22:54:44.995Z,1.80
2024-01-22T22:57:14.980Z,5.10
2024-01-22T22:59:43.970Z,2.33
2024-01-22T23:02:14.173Z,5.95
2024-01-22T23:04:43.306Z,1.65
2024-01-22T23:07:13.276Z,0.40
2024-01-22T23:09:41.888Z,3.05
2024-01-22T23:12:10.753Z,5.18
2024-01-22T23:14:39.433Z,2.50
2024-01-22T23:17:08.008Z,7.20
2024-01-22T23:19:38.105Z,5.05
2024-01-22T23:22:06.999Z,1.63
2024-01-22T23:24:36.262Z,2.45
2024-01-22T23:27:05.027Z,3.38
2024-01-22T23:29:34.264Z,4.55
2024-01-22T23:32:03.294Z,4.00
2024-01-22T23:34:31.989Z,6.88
2024-01-22T23:37:02.583Z,4.85
2024-01-22T23:39:31.235Z,3.85
2024-01-22T23:42:00.281Z,8.02
2024-01-22T23:44:29.710Z,9.98
2024-01-22T23:46:58.799Z,8.90
2024-01-22T23:49:29.851Z,5.53
2024-01-22T23:51:58.994Z,2.35
2024-01-22T23:54:29.335Z,7.47
2024-01-22T23:56:59.039Z,8.50
2024-01-22T23:59:27.807Z,6.18
